Time;durP1;ratioP1;P1;durP2;ratioP2;P2;SDS_P1;SDS_P2;PMS_P1;PMS_P2;Temp;Humidity;BMP_temperature;BMP_pressure;BME280_temperature;BME280_humidity;BME280_pressure;Samples;Min_cycle;Max_cycle;Signal;HPM_P1;HPM_P2
2021/12/17 00:04:52;;;;;;;40.88;19.05;;;;;;;;;;5100779;28;20328;-79
2021/12/17 00:07:19;;;;;;;39.33;19.38;;;;;;;;;;5100407;28;20095;-79
2021/12/17 00:09:46;;;;;;;43.55;19.48;;;;;;;;;;5101078;28;20040;-79
2021/12/17 00:12:14;;;;;;;40.55;18.98;;;;;;;;;;5100738;28;20043;-78
2021/12/17 00:14:43;;;;;;;39.05;18.67;;;;;;;;;;5101245;28;20024;-79
2021/12/17 00:17:14;;;;;;;36.50;17.65;;;;;;;;;;5100604;28;20115;-78
2021/12/17 00:20:06;;;;;;;34.47;17.13;;;;;;;;;;5100997;28;20069;-79
2021/12/17 00:48:22;;;;;;;31.83;16.50;;;;;;;;;;5100632;28;20057;-78
2021/12/17 00:49:49;;;;;;;33.42;16.83;;;;;;;;;;5101540;28;20017;-78
2021/12/17 00:52:15;;;;;;;36.45;17.40;;;;;;;;;;5101581;28;20032;-78
2021/12/17 00:54:45;;;;;;;37.42;17.30;;;;;;;;;;5101588;28;20020;-80
2021/12/17 00:57:17;;;;;;;37.60;17.50;;;;;;;;;;5100076;28;20015;-81
2021/12/17 00:59:46;;;;;;;34.53;16.63;;;;;;;;;;5100429;28;20016;-79
2021/12/17 01:02:15;;;;;;;36.28;17.40;;;;;;;;;;5099907;28;20020;-78
2021/12/17 01:04:49;;;;;;;35.00;16.80;;;;;;;;;;5099972;28;20035;-78
2021/12/17 01:07:16;;;;;;;36.50;17.98;;;;;;;;;;5100319;28;20379;-80
2021/12/17 01:09:42;;;;;;;35.83;16.40;;;;;;;;;;5100087;28;20032;-78
2021/12/17 01:12:09;;;;;;;37.78;16.55;;;;;;;;;;5100140;28;20337;-78
2021/12/17 01:14:35;;;;;;;39.35;18.55;;;;;;;;;;5099996;28;20028;-79
2021/12/17 01:17:03;;;;;;;34.28;17.70;;;;;;;;;;5099644;28;20020;-78
2021/12/17 01:35:23;;;;;;;35.90;17.88;;;;;;;;;;5099564;28;20062;-79
2021/12/17 01:38:53;;;;;;;44.38;19.10;;;;;;;;;;5099770;28;20028;-79
2021/12/17 01:43:28;;;;;;;38.45;17.02;;;;;;;;;;5099441;28;20040;-79
2021/12/17 01:45:54;;;;;;;41.10;19.30;;;;;;;;;;5099380;28;20092;-80
2021/12/17 01:48:26;;;;;;;40.38;17.75;;;;;;;;;;5099982;28;20016;-79
2021/12/17 02:01:39;;;;;;;36.70;17.52;;;;;;;;;;5099076;28;20043;-79
2021/12/17 02:04:05;;;;;;;37.95;17.33;;;;;;;;;;5099853;28;20099;-80
2021/12/17 02:06:35;;;;;;;41.20;18.05;;;;;;;;;;5099625;28;20204;-80
2021/12/17 02:09:01;;;;;;;36.60;17.52;;;;;;;;;;5099850;28;20050;-79
2021/12/17 02:20:11;;;;;;;38.92;17.10;;;;;;;;;;5099844;28;20035;-80
2021/12/17 02:31:16;;;;;;;32.33;14.88;;;;;;;;;;5101715;28;20061;-79
2021/12/17 02:33:22;;;;;;;34.10;15.90;;;;;;;;;;5097073;28;20348;-78
2021/12/17 02:35:48;;;;;;;34.35;16.90;;;;;;;;;;5101336;27;20034;-80
2021/12/17 02:38:15;;;;;;;35.55;16.73;;;;;;;;;;5103609;28;20026;-79
2021/12/17 02:46:09;;;;;;;35.92;15.80;;;;;;;;;;5103292;28;20252;-79
2021/12/17 02:48:36;;;;;;;33.53;15.63;;;;;;;;;;5103820;28;20020;-79
2021/12/17 02:51:02;;;;;;;36.40;15.35;;;;;;;;;;5102300;28;20227;-79
2021/12/17 02:53:29;;;;;;;33.50;15.15;;;;;;;;;;5103517;28;20023;-79
2021/12/17 02:56:03;;;;;;;28.70;14.48;;;;;;;;;;5103222;28;20028;-79
2021/12/17 02:58:30;;;;;;;28.65;14.82;;;;;;;;;;5103122;28;20034;-80
2021/12/17 03:00:57;;;;;;;29.65;14.35;;;;;;;;;;5102071;28;20224;-78
2021/12/17 03:03:25;;;;;;;30.48;14.05;;;;;;;;;;5084433;28;20024;-78
2021/12/17 03:05:51;;;;;;;26.75;13.95;;;;;;;;;;5083562;28;20028;-78
2021/12/17 03:08:17;;;;;;;27.88;13.95;;;;;;;;;;5091617;28;20182;-78
2021/12/17 03:10:48;;;;;;;28.23;13.98;;;;;;;;;;5090191;28;20035;-78
2021/12/17 03:13:19;;;;;;;28.60;14.15;;;;;;;;;;5102987;28;20027;-78
2021/12/17 03:23:40;;;;;;;30.55;14.50;;;;;;;;;;5102901;28;20362;-78
2021/12/17 03:26:09;;;;;;;32.00;14.48;;;;;;;;;;5103054;28;20208;-78
2021/12/17 03:28:37;;;;;;;29.98;13.77;;;;;;;;;;5102913;28;20228;-78
2021/12/17 03:31:06;;;;;;;28.67;13.82;;;;;;;;;;5110893;28;20312;-78
2021/12/17 03:33:32;;;;;;;29.27;13.57;;;;;;;;;;5123766;28;20099;-78
2021/12/17 03:35:58;;;;;;;28.60;14.45;;;;;;;;;;5083763;28;20336;-78
2021/12/17 03:38:24;;;;;;;27.70;13.43;;;;;;;;;;5082876;28;20083;-78
2021/12/17 03:40:57;;;;;;;30.63;14.35;;;;;;;;;;5112276;28;20023;-78
2021/12/17 03:43:29;;;;;;;28.05;13.63;;;;;;;;;;5122105;28;20216;-78
2021/12/17 03:45:54;;;;;;;32.33;14.57;;;;;;;;;;5123321;28;20015;-78
2021/12/17 03:48:20;;;;;;;29.60;14.20;;;;;;;;;;5122156;28;20031;-78
2021/12/17 03:50:45;;;;;;;27.48;14.20;;;;;;;;;;5095765;28;20034;-78
2021/12/17 03:53:10;;;;;;;29.13;14.75;;;;;;;;;;5082770;28;20058;-78
2021/12/17 03:55:36;;;;;;;26.95;14.40;;;;;;;;;;5082313;28;20028;-78
2021/12/17 03:58:02;;;;;;;30.98;15.32;;;;;;;;;;5082347;28;20028;-78
2021/12/17 04:00:29;;;;;;;26.75;14.80;;;;;;;;;;5082552;28;20024;-78
2021/12/17 04:02:54;;;;;;;30.42;14.15;;;;;;;;;;5082366;28;20032;-78
2021/12/17 04:05:20;;;;;;;27.50;14.43;;;;;;;;;;5082445;28;20013;-79
2021/12/17 04:07:45;;;;;;;31.30;14.05;;;;;;;;;;5082315;28;20020;-79
2021/12/17 04:10:11;;;;;;;30.25;14.73;;;;;;;;;;5082369;28;20025;-78
2021/12/17 04:15:15;;;;;;;30.23;14.82;;;;;;;;;;5082055;28;20028;-78
2021/12/17 04:17:54;;;;;;;27.30;14.20;;;;;;;;;;5082217;28;20016;-78
2021/12/17 04:20:19;;;;;;;28.83;14.82;;;;;;;;;;5090064;28;20073;-78
2021/12/17 04:22:44;;;;;;;29.83;15.05;;;;;;;;;;5081803;28;20048;-78
2021/12/17 04:25:10;;;;;;;33.28;14.43;;;;;;;;;;5081717;28;20203;-78
2021/12/17 04:27:36;;;;;;;32.90;15.75;;;;;;;;;;5081569;28;20036;-78
2021/12/17 04:30:02;;;;;;;29.50;14.80;;;;;;;;;;5082043;28;20099;-78
2021/12/17 04:32:28;;;;;;;32.15;14.38;;;;;;;;;;5081673;28;20025;-78
2021/12/17 04:34:53;;;;;;;29.42;14.10;;;;;;;;;;5082070;28;20030;-78
2021/12/17 04:37:19;;;;;;;32.00;15.00;;;;;;;;;;5081913;28;20092;-78
2021/12/17 04:39:44;;;;;;;30.98;14.45;;;;;;;;;;5080453;28;20028;-78
2021/12/17 04:42:19;;;;;;;32.42;14.95;;;;;;;;;;5079976;28;20267;-78
2021/12/17 04:44:52;;;;;;;29.20;14.35;;;;;;;;;;5081508;28;20333;-78
2021/12/17 04:58:00;;;;;;;34.72;14.90;;;;;;;;;;5081361;28;20043;-78
2021/12/17 05:00:29;;;;;;;31.38;15.05;;;;;;;;;;5081839;28;20020;-78
2021/12/17 05:02:57;;;;;;;31.55;14.75;;;;;;;;;;5081430;28;20216;-78
2021/12/17 05:05:28;;;;;;;30.95;14.10;;;;;;;;;;5081309;28;20021;-78
2021/12/17 05:08:00;;;;;;;25.63;13.65;;;;;;;;;;5080238;28;20020;-78
2021/12/17 05:18:28;;;;;;;27.30;13.73;;;;;;;;;;5081144;28;20032;-78
2021/12/17 05:21:03;;;;;;;26.33;13.60;;;;;;;;;;5080994;28;20088;-78
2021/12/17 05:23:33;;;;;;;28.45;13.05;;;;;;;;;;5081223;28;20023;-78
2021/12/17 05:26:07;;;;;;;31.75;13.18;;;;;;;;;;5081312;28;20024;-78
2021/12/17 05:28:34;;;;;;;26.25;13.57;;;;;;;;;;5080789;28;20078;-78
2021/12/17 05:31:00;;;;;;;26.73;13.77;;;;;;;;;;5081251;28;20320;-78
2021/12/17 05:33:26;;;;;;;24.45;12.88;;;;;;;;;;5081394;28;20029;-78
2021/12/17 05:35:53;;;;;;;25.90;12.35;;;;;;;;;;5083016;28;20032;-78
2021/12/17 05:38:21;;;;;;;28.75;12.32;;;;;;;;;;5121512;28;20026;-78
2021/12/17 05:40:48;;;;;;;26.42;12.40;;;;;;;;;;5104654;28;20024;-78
2021/12/17 05:43:15;;;;;;;22.40;11.63;;;;;;;;;;5080739;28;20025;-78
2021/12/17 05:48:10;;;;;;;23.45;11.45;;;;;;;;;;5081011;28;20336;-78
2021/12/17 05:50:41;;;;;;;24.40;13.05;;;;;;;;;;5080661;28;20050;-78
2021/12/17 05:53:08;;;;;;;28.35;11.95;;;;;;;;;;5080539;28;20056;-78
2021/12/17 05:55:34;;;;;;;24.92;11.88;;;;;;;;;;5081160;28;20020;-76
2021/12/17 05:58:00;;;;;;;25.27;11.70;;;;;;;;;;5080686;28;20017;-77
2021/12/17 06:00:29;;;;;;;23.15;12.38;;;;;;;;;;5080885;28;20027;-76
2021/12/17 06:02:54;;;;;;;24.40;11.57;;;;;;;;;;5101350;28;20020;-77
2021/12/17 06:05:20;;;;;;;23.58;11.88;;;;;;;;;;5088295;28;20047;-77
2021/12/17 06:07:45;;;;;;;27.88;12.50;;;;;;;;;;5083448;28;20402;-77
2021/12/17 06:10:11;;;;;;;25.80;12.43;;;;;;;;;;5084505;28;20340;-76
2021/12/17 06:12:37;;;;;;;23.42;12.50;;;;;;;;;;5084131;28;20039;-76
2021/12/17 06:15:08;;;;;;;26.45;11.95;;;;;;;;;;5084377;28;20025;-75
2021/12/17 06:17:34;;;;;;;27.42;12.40;;;;;;;;;;5084287;28;20217;-77
2021/12/17 06:20:00;;;;;;;23.15;12.15;;;;;;;;;;5083034;28;20024;-76
2021/12/17 06:22:25;;;;;;;25.05;12.65;;;;;;;;;;5090075;28;20100;-77
2021/12/17 06:24:51;;;;;;;26.58;13.90;;;;;;;;;;5084059;28;20138;-77
2021/12/17 06:27:19;;;;;;;31.83;14.32;;;;;;;;;;5082422;28;20212;-77
2021/12/17 06:29:46;;;;;;;34.75;13.57;;;;;;;;;;5082954;28;20043;-77
2021/12/17 06:32:11;;;;;;;27.52;12.73;;;;;;;;;;5084004;28;20024;-77
2021/12/17 06:34:40;;;;;;;27.20;13.07;;;;;;;;;;5089258;28;20261;-76
2021/12/17 06:37:06;;;;;;;29.08;13.52;;;;;;;;;;5089473;28;20026;-78
2021/12/17 06:39:33;;;;;;;26.13;12.68;;;;;;;;;;5093617;28;20072;-83
2021/12/17 06:41:59;;;;;;;25.98;13.57;;;;;;;;;;5110266;28;20423;-82
2021/12/17 06:44:26;;;;;;;25.85;13.57;;;;;;;;;;5082711;28;20021;-82
2021/12/17 06:54:58;;;;;;;28.73;12.88;;;;;;;;;;5097730;28;20031;-74
2021/12/17 07:10:40;;;;;;;26.40;12.68;;;;;;;;;;5097152;28;20049;-79
2021/12/17 07:21:29;;;;;;;24.92;13.10;;;;;;;;;;5123952;28;20024;-75
2021/12/17 07:40:09;;;;;;;25.55;12.35;;;;;;;;;;5102656;28;20024;-75
2021/12/17 07:42:34;;;;;;;28.90;12.68;;;;;;;;;;5105305;28;20022;-75
2021/12/17 07:45:00;;;;;;;27.35;12.60;;;;;;;;;;5102373;28;20058;-75
2021/12/17 07:47:26;;;;;;;29.75;12.80;;;;;;;;;;5102241;28;20079;-75
2021/12/17 07:49:52;;;;;;;27.00;12.85;;;;;;;;;;5101904;28;20035;-77
2021/12/17 07:52:18;;;;;;;26.38;12.65;;;;;;;;;;5101957;28;20024;-75
2021/12/17 07:54:43;;;;;;;24.88;11.68;;;;;;;;;;5102052;28;20091;-76
2021/12/17 07:57:09;;;;;;;25.83;12.65;;;;;;;;;;5100977;28;20023;-75
2021/12/17 07:59:35;;;;;;;28.08;12.20;;;;;;;;;;5099534;28;20031;-75
2021/12/17 08:02:00;;;;;;;24.55;12.57;;;;;;;;;;5101336;28;20055;-76
2021/12/17 08:04:26;;;;;;;28.55;12.95;;;;;;;;;;5101340;28;20070;-76
2021/12/17 08:06:51;;;;;;;28.63;13.75;;;;;;;;;;5100529;28;20054;-75
2021/12/17 08:09:19;;;;;;;26.10;13.02;;;;;;;;;;5098640;28;20130;-75
2021/12/17 08:11:44;;;;;;;27.40;13.27;;;;;;;;;;5101272;28;20032;-74
2021/12/17 08:14:14;;;;;;;30.20;13.95;;;;;;;;;;5101107;28;20080;-75
2021/12/17 08:16:51;;;;;;;28.05;12.98;;;;;;;;;;5101743;28;20116;-75
2021/12/17 08:25:31;;;;;;;25.98;13.13;;;;;;;;;;5101097;28;20150;-75
2021/12/17 08:30:22;;;;;;;28.43;13.03;;;;;;;;;;5097583;28;20024;-75
2021/12/17 08:32:49;;;;;;;27.55;13.13;;;;;;;;;;5099585;28;20039;-77
2021/12/17 08:35:14;;;;;;;26.30;13.68;;;;;;;;;;5101590;28;20136;-78
2021/12/17 08:37:40;;;;;;;26.52;13.00;;;;;;;;;;5092997;28;20028;-77
2021/12/17 08:40:07;;;;;;;26.63;12.07;;;;;;;;;;5084848;28;20062;-77
2021/12/17 08:42:33;;;;;;;27.27;12.70;;;;;;;;;;5085064;28;20024;-77
2021/12/17 08:45:00;;;;;;;26.60;13.18;;;;;;;;;;5081508;28;20040;-78
2021/12/17 08:47:25;;;;;;;28.50;12.98;;;;;;;;;;5081385;28;20316;-77
2021/12/17 08:49:51;;;;;;;25.77;13.02;;;;;;;;;;5081436;28;20073;-79
2021/12/17 08:52:17;;;;;;;25.95;12.95;;;;;;;;;;5081251;28;20028;-76
2021/12/17 08:54:42;;;;;;;23.52;12.75;;;;;;;;;;5080134;28;20024;-77
2021/12/17 08:57:09;;;;;;;32.75;14.20;;;;;;;;;;5081437;28;20088;-76
2021/12/17 08:59:35;;;;;;;28.83;13.10;;;;;;;;;;5081350;28;20023;-76
2021/12/17 09:02:01;;;;;;;29.67;13.95;;;;;;;;;;5090389;28;20032;-76
2021/12/17 09:04:27;;;;;;;28.48;14.15;;;;;;;;;;5100796;28;20015;-76
2021/12/17 09:06:54;;;;;;;26.58;13.40;;;;;;;;;;5102519;28;20099;-75
2021/12/17 09:09:22;;;;;;;29.15;14.05;;;;;;;;;;5109317;28;20027;-76
2021/12/17 09:11:47;;;;;;;29.33;13.38;;;;;;;;;;5105649;28;20083;-76
2021/12/17 09:14:13;;;;;;;27.58;13.57;;;;;;;;;;5102846;28;20208;-79
2021/12/17 09:16:38;;;;;;;28.02;13.60;;;;;;;;;;5101308;28;20039;-76
2021/12/17 09:19:05;;;;;;;27.92;13.73;;;;;;;;;;5101439;28;20023;-76
2021/12/17 09:21:31;;;;;;;30.75;13.73;;;;;;;;;;5100878;28;20031;-76
2021/12/17 09:23:57;;;;;;;33.15;13.05;;;;;;;;;;5100097;28;20024;-76
2021/12/17 09:26:22;;;;;;;30.92;13.75;;;;;;;;;;5100244;28;20031;-79
2021/12/17 09:28:51;;;;;;;32.95;13.20;;;;;;;;;;5099872;28;20097;-76
2021/12/17 09:31:17;;;;;;;30.60;14.57;;;;;;;;;;5100054;28;20063;-78
2021/12/17 09:33:46;;;;;;;28.27;13.35;;;;;;;;;;5099962;28;20108;-75
2021/12/17 09:36:11;;;;;;;29.10;14.15;;;;;;;;;;5100170;28;20032;-78
2021/12/17 09:38:37;;;;;;;28.45;14.18;;;;;;;;;;5102588;28;20024;-76
2021/12/17 09:41:03;;;;;;;27.38;13.77;;;;;;;;;;5106714;28;20028;-77
2021/12/17 09:43:35;;;;;;;31.52;13.48;;;;;;;;;;5107815;28;20130;-79
2021/12/17 09:46:02;;;;;;;28.23;13.18;;;;;;;;;;5107825;28;20024;-76
2021/12/17 09:48:27;;;;;;;26.70;13.13;;;;;;;;;;5107913;28;20034;-76
2021/12/17 09:50:54;;;;;;;29.75;14.25;;;;;;;;;;5107782;28;20051;-76
2021/12/17 09:53:19;;;;;;;28.33;14.07;;;;;;;;;;5097322;28;20254;-76
2021/12/17 09:55:45;;;;;;;29.45;13.63;;;;;;;;;;5085870;28;20039;-76
2021/12/17 09:58:11;;;;;;;24.85;12.48;;;;;;;;;;5086638;28;20040;-76
2021/12/17 10:00:36;;;;;;;27.95;14.52;;;;;;;;;;5087542;28;20044;-80
2021/12/17 10:03:02;;;;;;;24.88;11.50;;;;;;;;;;5087744;28;20272;-77
2021/12/17 10:05:34;;;;;;;29.33;12.80;;;;;;;;;;5087313;28;20024;-76
2021/12/17 10:08:05;;;;;;;19.30;11.05;;;;;;;;;;5087404;28;20028;-76
2021/12/17 10:10:42;;;;;;;25.50;12.55;;;;;;;;;;5087374;28;20312;-76
2021/12/17 10:13:14;;;;;;;24.50;13.10;;;;;;;;;;5087396;28;20115;-75
2021/12/17 10:15:42;;;;;;;24.88;12.10;;;;;;;;;;5087522;28;20036;-78
2021/12/17 10:18:07;;;;;;;25.63;12.50;;;;;;;;;;5087345;28;20208;-77
2021/12/17 10:20:40;;;;;;;22.92;12.73;;;;;;;;;;5087350;28;20024;-78
2021/12/17 10:23:08;;;;;;;25.95;12.63;;;;;;;;;;5087616;28;20021;-76
2021/12/17 10:25:36;;;;;;;26.83;11.43;;;;;;;;;;5087344;28;20026;-77
2021/12/17 10:28:06;;;;;;;30.15;12.70;;;;;;;;;;5086822;28;20046;-77
2021/12/17 10:30:37;;;;;;;24.10;12.13;;;;;;;;;;5087310;28;20207;-77
2021/12/17 10:33:14;;;;;;;19.80;11.10;;;;;;;;;;5087738;28;20024;-77
2021/12/17 10:35:43;;;;;;;22.40;11.27;;;;;;;;;;5086237;28;20024;-77
2021/12/17 10:38:12;;;;;;;23.88;11.60;;;;;;;;;;5087155;28;20016;-76
2021/12/17 10:40:45;;;;;;;24.85;11.82;;;;;;;;;;5096775;28;20087;-78
2021/12/17 10:43:26;;;;;;;19.92;9.70;;;;;;;;;;5107196;28;20169;-77
2021/12/17 10:46:05;;;;;;;26.67;13.60;;;;;;;;;;5107104;28;20020;-80
2021/12/17 10:48:36;;;;;;;28.48;13.65;;;;;;;;;;5107022;28;20087;-80
2021/12/17 10:51:22;;;;;;;28.77;14.27;;;;;;;;;;5104279;28;20020;-77
2021/12/17 10:53:53;;;;;;;30.92;15.63;;;;;;;;;;5104403;28;20103;-79
2021/12/17 10:56:24;;;;;;;29.83;13.70;;;;;;;;;;5103807;28;20087;-77
2021/12/17 10:59:08;;;;;;;31.45;14.35;;;;;;;;;;5104354;28;20141;-75
2021/12/17 11:01:42;;;;;;;35.38;15.25;;;;;;;;;;5103594;28;20118;-78
2021/12/17 11:04:23;;;;;;;28.53;14.27;;;;;;;;;;5102514;28;20030;-77
2021/12/17 11:07:00;;;;;;;34.55;16.27;;;;;;;;;;5086595;28;20024;-77
2021/12/17 11:09:43;;;;;;;29.42;14.85;;;;;;;;;;5100189;28;20031;-83
2021/12/17 11:12:14;;;;;;;28.67;14.07;;;;;;;;;;5094785;28;20043;-77
2021/12/17 11:14:41;;;;;;;25.55;12.70;;;;;;;;;;5084379;28;20055;-76
2021/12/17 11:17:09;;;;;;;26.73;12.80;;;;;;;;;;5084959;28;20036;-89
2021/12/17 11:19:36;;;;;;;24.48;11.88;;;;;;;;;;5100023;28;20027;-78
2021/12/17 11:22:01;;;;;;;21.90;10.73;;;;;;;;;;5085515;28;20040;-80
2021/12/17 11:24:28;;;;;;;26.33;12.52;;;;;;;;;;5081966;28;20032;-79
2021/12/17 11:26:57;;;;;;;22.40;11.93;;;;;;;;;;5081755;28;20070;-79
2021/12/17 11:29:23;;;;;;;23.98;11.45;;;;;;;;;;5109771;28;20039;-77
2021/12/17 11:31:49;;;;;;;25.00;11.35;;;;;;;;;;5103404;28;20020;-77
2021/12/17 11:34:20;;;;;;;23.02;11.82;;;;;;;;;;5095793;28;20209;-76
2021/12/17 11:36:47;;;;;;;22.27;11.38;;;;;;;;;;5095300;28;20024;-77
2021/12/17 11:39:21;;;;;;;23.30;12.02;;;;;;;;;;5102460;28;20043;-78
2021/12/17 11:42:14;;;;;;;24.73;11.63;;;;;;;;;;5090235;28;20052;-78
2021/12/17 11:44:42;;;;;;;21.25;10.45;;;;;;;;;;5082696;28;20024;-78
2021/12/17 11:47:10;;;;;;;20.63;10.38;;;;;;;;;;5089097;28;20411;-77
2021/12/17 11:49:47;;;;;;;23.13;11.85;;;;;;;;;;5090825;28;20046;-78
2021/12/17 11:52:14;;;;;;;23.95;11.40;;;;;;;;;;5101632;28;20099;-76
2021/12/17 11:54:40;;;;;;;22.55;11.05;;;;;;;;;;5102445;28;20314;-76
2021/12/17 11:57:13;;;;;;;16.33;9.02;;;;;;;;;;5101736;28;20026;-77
2021/12/17 11:59:43;;;;;;;17.70;9.02;;;;;;;;;;5082378;28;20021;-79
2021/12/17 12:02:19;;;;;;;17.70;9.18;;;;;;;;;;5095903;28;20083;-77
2021/12/17 12:04:57;;;;;;;20.20;9.75;;;;;;;;;;5100194;28;20272;-78
2021/12/17 12:07:25;;;;;;;17.48;9.52;;;;;;;;;;5104841;28;20020;-78
2021/12/17 12:10:15;;;;;;;19.80;10.00;;;;;;;;;;5103484;28;20301;-79
2021/12/17 12:12:45;;;;;;;16.33;9.30;;;;;;;;;;5097882;28;20095;-78
2021/12/17 12:15:23;;;;;;;18.20;9.65;;;;;;;;;;5105220;28;20024;-78
2021/12/17 12:17:57;;;;;;;16.50;9.57;;;;;;;;;;5118421;28;20082;-80
2021/12/17 12:20:51;;;;;;;18.27;8.67;;;;;;;;;;5122726;28;20386;-78
2021/12/17 12:23:32;;;;;;;17.60;8.85;;;;;;;;;;5109838;28;20276;-77
2021/12/17 12:26:11;;;;;;;15.75;8.55;;;;;;;;;;5081725;28;20246;-77
2021/12/17 12:28:48;;;;;;;15.75;8.77;;;;;;;;;;5081431;28;20044;-81
2021/12/17 12:31:17;;;;;;;15.35;8.13;;;;;;;;;;5089215;28;20335;-80
2021/12/17 12:34:00;;;;;;;16.17;8.20;;;;;;;;;;5092182;28;20036;-78
2021/12/17 12:37:06;;;;;;;20.92;8.45;;;;;;;;;;5088230;28;20103;-82
2021/12/17 12:39:49;;;;;;;16.05;7.20;;;;;;;;;;5081731;28;20070;-79
2021/12/17 12:42:23;;;;;;;15.85;7.50;;;;;;;;;;5082778;28;20036;-82
2021/12/17 12:44:48;;;;;;;15.60;7.68;;;;;;;;;;5081417;28;20063;-78
2021/12/17 12:47:20;;;;;;;12.90;7.47;;;;;;;;;;5087659;28;20020;-80
2021/12/17 12:50:00;;;;;;;12.90;6.85;;;;;;;;;;5086391;28;20024;-78
2021/12/17 12:52:25;;;;;;;13.23;7.30;;;;;;;;;;5081234;28;20058;-77
2021/12/17 12:54:58;;;;;;;12.75;7.32;;;;;;;;;;5101081;28;20023;-81
2021/12/17 12:57:25;;;;;;;12.27;6.53;;;;;;;;;;5121958;28;20027;-78
2021/12/17 12:59:55;;;;;;;12.50;7.32;;;;;;;;;;5121918;28;20020;-79
2021/12/17 13:02:25;;;;;;;12.32;6.57;;;;;;;;;;5121879;28;20307;-76
2021/12/17 13:04:55;;;;;;;14.10;7.13;;;;;;;;;;5120729;28;20031;-76
2021/12/17 13:07:32;;;;;;;13.20;7.50;;;;;;;;;;5109024;28;20048;-80
2021/12/17 13:10:04;;;;;;;12.40;6.47;;;;;;;;;;5081184;28;20088;-80
2021/12/17 13:12:30;;;;;;;9.65;5.20;;;;;;;;;;5090350;28;20053;-77
2021/12/17 13:14:57;;;;;;;12.27;5.97;;;;;;;;;;5121189;28;20024;-81
2021/12/17 13:20:15;;;;;;;12.93;6.60;;;;;;;;;;5121753;28;20087;-78
2021/12/17 13:20:53;;;;;;;12.20;6.10;;;;;;;;;;5121175;28;20030;-80
2021/12/17 13:23:18;;;;;;;12.15;6.07;;;;;;;;;;5099768;28;20028;-77
2021/12/17 13:25:44;;;;;;;10.32;5.80;;;;;;;;;;5099363;28;20319;-79
2021/12/17 13:28:09;;;;;;;13.55;6.03;;;;;;;;;;5080408;28;20032;-78
2021/12/17 13:30:35;;;;;;;11.35;6.15;;;;;;;;;;5098221;28;20032;-78
2021/12/17 13:33:00;;;;;;;11.70;6.70;;;;;;;;;;5099543;28;20280;-82
2021/12/17 13:35:27;;;;;;;12.90;6.70;;;;;;;;;;5102899;28;20287;-80
2021/12/17 13:38:01;;;;;;;12.82;6.70;;;;;;;;;;5121504;28;20351;-76
2021/12/17 13:40:27;;;;;;;13.75;6.53;;;;;;;;;;5093473;28;20031;-76
2021/12/17 13:42:55;;;;;;;12.70;6.50;;;;;;;;;;5093470;28;20053;-80
2021/12/17 13:45:21;;;;;;;14.07;6.90;;;;;;;;;;5084399;28;20031;-80
2021/12/17 13:47:55;;;;;;;12.88;6.63;;;;;;;;;;5080770;28;20025;-77
2021/12/17 13:50:24;;;;;;;12.30;6.88;;;;;;;;;;5087325;28;20016;-80
2021/12/17 13:52:58;;;;;;;14.32;7.53;;;;;;;;;;5085842;28;20024;-80
2021/12/17 13:55:31;;;;;;;16.17;8.23;;;;;;;;;;5091485;28;20024;-78
2021/12/17 13:57:59;;;;;;;17.02;8.23;;;;;;;;;;5080944;28;20016;-77
2021/12/17 14:00:30;;;;;;;15.70;7.55;;;;;;;;;;5097634;28;20028;-79
2021/12/17 14:02:58;;;;;;;15.73;7.68;;;;;;;;;;5083194;28;20329;-78
2021/12/17 14:05:28;;;;;;;19.48;8.60;;;;;;;;;;5092477;28;20213;-78
2021/12/17 14:07:56;;;;;;;18.17;9.32;;;;;;;;;;5100825;28;20028;-76
2021/12/17 14:10:24;;;;;;;17.08;8.93;;;;;;;;;;5100281;28;20020;-77
2021/12/17 14:12:50;;;;;;;18.05;8.80;;;;;;;;;;5100532;28;20024;-75
2021/12/17 14:15:26;;;;;;;17.55;7.47;;;;;;;;;;5089791;28;20197;-76
2021/12/17 14:17:56;;;;;;;16.30;7.95;;;;;;;;;;5079585;28;20035;-80
2021/12/17 14:20:24;;;;;;;15.75;7.65;;;;;;;;;;5085623;28;20044;-78
2021/12/17 14:22:53;;;;;;;13.77;7.25;;;;;;;;;;5085800;28;20079;-75
2021/12/17 14:25:31;;;;;;;17.38;7.53;;;;;;;;;;5099477;28;20024;-77
2021/12/17 14:28:07;;;;;;;18.77;7.90;;;;;;;;;;5106127;28;20103;-77
2021/12/17 14:30:33;;;;;;;16.25;7.22;;;;;;;;;;5102038;28;20054;-78
2021/12/17 14:33:17;;;;;;;17.45;7.53;;;;;;;;;;5103380;28;20035;-76
2021/12/17 14:35:53;;;;;;;18.00;8.40;;;;;;;;;;5103139;28;20020;-74
2021/12/17 14:38:22;;;;;;;14.75;6.38;;;;;;;;;;5103342;28;20028;-76
2021/12/17 14:40:56;;;;;;;15.48;7.45;;;;;;;;;;5099763;28;20032;-77
2021/12/17 14:43:43;;;;;;;16.52;8.23;;;;;;;;;;5103032;28;20036;-76
2021/12/17 14:46:28;;;;;;;17.30;8.63;;;;;;;;;;5102929;28;20051;-79
2021/12/17 14:57:19;;;;;;;16.77;8.13;;;;;;;;;;5104083;28;20119;-77
2021/12/17 15:02:48;;;;;;;14.10;6.18;;;;;;;;;;5104602;28;20024;-76
2021/12/17 15:05:17;;;;;;;12.57;6.13;;;;;;;;;;5102751;28;20024;-75
2021/12/17 15:07:43;;;;;;;12.65;6.50;;;;;;;;;;5106762;28;20027;-75
2021/12/17 15:10:10;;;;;;;14.73;6.38;;;;;;;;;;5105166;28;20288;-77
2021/12/17 15:12:37;;;;;;;13.73;6.28;;;;;;;;;;5103656;28;20042;-76
2021/12/17 15:15:04;;;;;;;11.60;6.57;;;;;;;;;;5103779;28;20083;-80
2021/12/17 15:17:35;;;;;;;13.13;6.90;;;;;;;;;;5102406;28;20203;-78
2021/12/17 15:20:01;;;;;;;12.50;6.07;;;;;;;;;;5103545;28;20096;-77
2021/12/17 15:22:27;;;;;;;14.05;6.07;;;;;;;;;;5104042;28;20028;-75
2021/12/17 15:24:53;;;;;;;13.07;6.20;;;;;;;;;;5103359;28;20024;-77
2021/12/17 15:27:18;;;;;;;10.48;5.45;;;;;;;;;;5103490;28;20362;-79
2021/12/17 15:29:45;;;;;;;11.90;6.28;;;;;;;;;;5103202;28;20209;-77
2021/12/17 15:32:10;;;;;;;13.55;5.85;;;;;;;;;;5103268;28;20032;-75
2021/12/17 15:34:35;;;;;;;10.68;5.65;;;;;;;;;;5103187;28;20027;-76
2021/12/17 15:37:01;;;;;;;12.48;5.90;;;;;;;;;;5102477;28;20024;-76
2021/12/17 15:39:27;;;;;;;11.27;5.03;;;;;;;;;;5102654;28;20070;-77
2021/12/17 15:41:53;;;;;;;15.07;6.10;;;;;;;;;;5102009;28;20020;-75
2021/12/17 15:44:19;;;;;;;10.25;5.82;;;;;;;;;;5102676;28;20047;-76
2021/12/17 15:46:44;;;;;;;10.80;5.78;;;;;;;;;;5103050;28;20047;-76
2021/12/17 15:49:10;;;;;;;16.08;5.88;;;;;;;;;;5103169;28;20109;-77
2021/12/17 15:51:36;;;;;;;12.23;6.05;;;;;;;;;;5102778;28;20020;-77
2021/12/17 15:54:04;;;;;;;15.35;6.80;;;;;;;;;;5102429;28;20024;-78
2021/12/17 15:56:32;;;;;;;14.23;6.60;;;;;;;;;;5102885;28;20023;-78
2021/12/17 15:59:02;;;;;;;18.17;7.10;;;;;;;;;;5102595;28;20035;-80
2021/12/17 16:01:27;;;;;;;16.63;6.60;;;;;;;;;;5102636;28;20020;-76
2021/12/17 16:03:52;;;;;;;13.40;6.22;;;;;;;;;;5103142;28;20083;-76
2021/12/17 16:06:18;;;;;;;17.75;7.97;;;;;;;;;;5101169;28;20201;-77
2021/12/17 16:08:48;;;;;;;16.48;7.10;;;;;;;;;;5102556;28;20024;-77
2021/12/17 16:22:02;;;;;;;24.20;10.82;;;;;;;;;;5102366;28;20062;-78
2021/12/17 16:24:27;;;;;;;30.35;12.75;;;;;;;;;;5102386;28;20032;-77
2021/12/17 16:26:54;;;;;;;25.92;11.85;;;;;;;;;;5101815;28;20020;-76
2021/12/17 16:29:20;;;;;;;29.55;11.27;;;;;;;;;;5101836;28;20028;-78
2021/12/17 16:31:46;;;;;;;25.67;11.55;;;;;;;;;;5102181;28;20079;-78
2021/12/17 16:34:12;;;;;;;24.60;10.52;;;;;;;;;;5101741;28;20035;-81
2021/12/17 16:36:39;;;;;;;22.17;10.63;;;;;;;;;;5101803;28;20055;-76
2021/12/17 16:39:08;;;;;;;24.85;10.65;;;;;;;;;;5101872;28;20016;-82
2021/12/17 16:41:34;;;;;;;18.27;9.38;;;;;;;;;;5101900;28;20239;-77
2021/12/17 16:44:03;;;;;;;19.98;9.40;;;;;;;;;;5101375;28;20086;-77
2021/12/17 16:47:02;;;;;;;21.55;9.38;;;;;;;;;;5101881;28;20035;-76
2021/12/17 16:49:21;;;;;;;21.08;8.35;;;;;;;;;;5098702;28;20044;-77
2021/12/17 16:51:49;;;;;;;17.10;9.23;;;;;;;;;;5101647;28;20069;-77
2021/12/17 16:54:15;;;;;;;17.35;9.15;;;;;;;;;;5101986;28;20083;-77
2021/12/17 16:56:41;;;;;;;20.33;9.25;;;;;;;;;;5101652;28;20024;-77
2021/12/17 16:59:06;;;;;;;16.48;8.68;;;;;;;;;;5101575;28;20024;-77
2021/12/17 17:01:35;;;;;;;17.35;8.80;;;;;;;;;;5102482;28;20141;-76
2021/12/17 17:04:04;;;;;;;20.05;8.80;;;;;;;;;;5102473;28;20020;-76
2021/12/17 17:06:29;;;;;;;17.45;9.45;;;;;;;;;;5100880;28;20047;-76
2021/12/17 17:09:00;;;;;;;18.73;10.25;;;;;;;;;;5094854;28;20070;-74
2021/12/17 17:11:29;;;;;;;21.40;10.25;;;;;;;;;;5112697;28;20332;-75
2021/12/17 17:13:55;;;;;;;19.25;9.63;;;;;;;;;;5100939;28;20055;-77
2021/12/17 17:16:20;;;;;;;17.50;9.75;;;;;;;;;;5101455;28;20309;-77
2021/12/17 17:18:46;;;;;;;17.98;9.98;;;;;;;;;;5102677;28;20031;-77
2021/12/17 17:21:11;;;;;;;16.65;8.88;;;;;;;;;;5101698;28;20091;-82
2021/12/17 17:23:38;;;;;;;19.15;9.35;;;;;;;;;;5104348;28;20031;-77
2021/12/17 17:26:09;;;;;;;17.88;9.45;;;;;;;;;;5113062;28;20015;-79
2021/12/17 17:28:37;;;;;;;21.73;10.45;;;;;;;;;;5099971;28;20127;-79
2021/12/17 17:31:03;;;;;;;27.27;10.88;;;;;;;;;;5101057;28;20027;-81
2021/12/17 17:33:28;;;;;;;21.50;10.23;;;;;;;;;;5101229;28;20035;-81
2021/12/17 17:35:54;;;;;;;17.00;9.43;;;;;;;;;;5099704;28;20057;-76
2021/12/17 17:38:20;;;;;;;19.30;9.63;;;;;;;;;;5100967;28;20031;-76
2021/12/17 17:40:45;;;;;;;20.15;10.43;;;;;;;;;;5101024;28;20087;-84